aviador You're here:

KUUU Decoded Metar

NEWPORT in RI, USA
Report Time2018-07-19 18:53:00
UTC Time2018-07-19 19:13:37
Flight Rules vfr VFR
Wind180° at 07 kt
W.Decomp.*RWY 22: 6.3 kt HW 3 kt LCW
RWY 16: 5.7 kt HW 4.0 kt RCW
W.Rank180° ranks 7
Current wind is below 180° avg. (8.3)
Visibility9999 m
Phenomena:N/A
Clouds:N/A
Expected CloudBase > 5,200 ft AGL from Temp-Dew spread
CeilingNone
Temp25°C (ISA +10)
Dew Point12°C (44% RH)
AAT23.1°C
QNH1019 hPa
Density Alt1,352 ft
Elevation167 ft
Report Wrong Elevation
Raw Report
KUUU 191853Z AUTO 18007KT 140V200 10SM CLR 25/12 A3008 RMK AO2
SLP185 T02500122=

Extra information for KUUU:More info

Metar Taf Metar & Taf Last 4 Metars F.Rules Stats Wind Profile Meteogram Temp Stats Airport Information Weather charts Add Link Nearby VenuesMetar ALERT Operation Metar Decoded Social comments

AIRNAV info for KUUU